Time,TemperatureF,DewpointF,PressureIn,WindDirection,WindDirectionDegrees,WindSpeedMPH,WindSpeedGustMPH,Humidity,HourlyPrecipIn,Conditions,Clouds,dailyrainin,SolarRadiationWatts/m^2,SoftwareType,DateUTC
2013-09-07 00:07:00,68.1,48.0,30.02,North,7,4.0,9.0,49,0.00,,,0.00,0,weatherlink.com 1.10,2013-09-07 06:07:00,
2013-09-07 00:22:00,68.1,48.0,30.02,North,8,7.0,10.0,49,0.00,,,0.00,0,weatherlink.com 1.10,2013-09-07 06:22:00,
2013-09-07 00:37:00,68.2,48.0,30.03,NNE,12,7.0,9.0,48,0.00,,,0.00,0,weatherlink.com 1.10,2013-09-07 06:37:00,
2013-09-07 00:52:00,68.3,48.0,30.03,NNW,345,6.0,12.0,49,0.00,,,0.00,0,weatherlink.com 1.10,2013-09-07 06:52:00,
2013-09-07 01:07:00,67.8,50.0,30.03,North,356,4.0,13.0,53,0.00,,,0.00,0,weatherlink.com 1.10,2013-09-07 07:07:00,
2013-09-07 01:22:00,67.1,50.0,30.03,NNW,338,8.0,11.0,55,0.00,,,0.00,0,weatherlink.com 1.10,2013-09-07 07:22:00,
2013-09-07 01:37:00,66.3,50.0,30.03,NNW,333,3.0,11.0,56,0.00,,,0.00,0,weatherlink.com 1.10,2013-09-07 07:37:00,
2013-09-07 01:52:00,65.4,50.0,30.03,NNW,338,9.0,11.0,57,0.00,,,0.00,0,weatherlink.com 1.10,2013-09-07 07:52:00,
2013-09-07 02:07:00,64.8,49.0,30.04,NNW,343,7.0,12.0,57,0.00,,,0.00,0,weatherlink.com 1.10,2013-09-07 08:07:00,
2013-09-07 02:22:00,65.1,48.0,30.04,NNW,343,6.0,11.0,55,0.00,,,0.00,0,weatherlink.com 1.10,2013-09-07 08:22:00,
2013-09-07 02:37:00,64.8,49.0,30.04,North,5,5.0,11.0,56,0.00,,,0.00,0,weatherlink.com 1.10,2013-09-07 08:37:00,
2013-09-07 02:52:00,64.7,48.0,30.04,North,6,7.0,12.0,56,0.00,,,0.00,0,weatherlink.com 1.10,2013-09-07 08:52:00,
2013-09-07 03:07:00,64.4,48.0,30.04,North,358,3.0,8.0,55,0.00,,,0.00,0,weatherlink.com 1.10,2013-09-07 09:07:00,
2013-09-07 03:22:00,63.8,49.0,30.04,NNW,335,3.0,12.0,58,0.00,,,0.00,0,weatherlink.com 1.10,2013-09-07 09:22:00,
2013-09-07 03:37:00,63.4,49.0,30.04,North,4,5.0,11.0,59,0.00,,,0.00,0,weatherlink.com 1.10,2013-09-07 09:37:00,
2013-09-07 03:52:00,63.1,49.0,30.05,North,4,6.0,12.0,60,0.00,,,0.00,0,weatherlink.com 1.10,2013-09-07 09:52:00,
2013-09-07 04:07:00,62.8,50.0,30.05,North,351,9.0,13.0,63,0.00,,,0.00,0,weatherlink.com 1.10,2013-09-07 10:07:00,
2013-09-07 04:22:00,62.2,50.0,30.05,North,352,5.0,14.0,64,0.00,,,0.00,0,weatherlink.com 1.10,2013-09-07 10:22:00,
2013-09-07 04:37:00,61.3,49.0,30.04,NNW,334,5.0,9.0,64,0.00,,,0.00,0,weatherlink.com 1.10,2013-09-07 10:37:00,
2013-09-07 04:52:00,60.6,48.0,30.05,NNW,334,6.0,9.0,64,0.00,,,0.00,0,weatherlink.com 1.10,2013-09-07 10:52:00,
2013-09-07 05:07:00,60.3,49.0,30.05,North,350,6.0,12.0,66,0.00,,,0.00,0,weatherlink.com 1.10,2013-09-07 11:07:00,
2013-09-07 05:22:00,60.7,50.0,30.06,NNW,341,10.0,14.0,67,0.00,,,0.00,0,weatherlink.com 1.10,2013-09-07 11:22:00,
2013-09-07 05:38:00,60.4,50.0,30.06,North,353,4.0,14.0,68,0.00,,,0.00,0,weatherlink.com 1.10,2013-09-07 11:38:00,
2013-09-07 05:53:00,59.5,49.0,30.06,North,9,7.0,10.0,69,0.00,,,0.00,0,weatherlink.com 1.10,2013-09-07 11:53:00,
2013-09-07 06:08:00,59.4,49.0,30.06,North,8,6.0,10.0,68,0.00,,,0.00,0,weatherlink.com 1.10,2013-09-07 12:08:00,
2013-09-07 06:23:00,60.2,48.0,30.05,NNE,12,7.0,8.0,65,0.00,,,0.00,0,weatherlink.com 1.10,2013-09-07 12:23:00,
2013-09-07 06:38:00,60.7,48.0,30.06,North,7,3.0,8.0,63,0.00,,,0.00,0,weatherlink.com 1.10,2013-09-07 12:38:00,
2013-09-07 06:53:00,58.8,48.0,30.06,North,356,5.0,7.0,67,0.00,,,0.00,0,weatherlink.com 1.10,2013-09-07 12:53:00,
2013-09-07 07:08:00,57.0,48.0,30.06,North,2,3.0,7.0,71,0.00,,,0.00,5,weatherlink.com 1.10,2013-09-07 13:08:00,
2013-09-07 07:23:00,57.6,49.0,30.07,North,353,4.0,7.0,72,0.00,,,0.00,14,weatherlink.com 1.10,2013-09-07 13:23:00,
2013-09-07 07:38:00,57.3,48.0,30.07,NE,38,3.0,6.0,71,0.00,,,0.00,19,weatherlink.com 1.10,2013-09-07 13:38:00,
2013-09-07 07:53:00,57.3,48.0,30.07,NE,43,1.0,4.0,72,0.00,,,0.00,25,weatherlink.com 1.10,2013-09-07 13:53:00,
2013-09-07 08:08:00,57.2,49.0,30.07,North,11,0.0,0.0,73,0.00,,,0.00,74,weatherlink.com 1.10,2013-09-07 14:08:00,
2013-09-07 08:23:00,56.8,49.0,30.07,North,11,0.0,0.0,76,0.00,,,0.00,116,weatherlink.com 1.10,2013-09-07 14:23:00,
2013-09-07 08:38:00,58.1,50.0,30.07,ESE,117,0.0,0.0,74,0.00,,,0.00,163,weatherlink.com 1.10,2013-09-07 14:38:00,
2013-09-07 08:53:00,58.8,50.0,30.07,SSW,212,0.0,2.0,73,0.00,,,0.00,211,weatherlink.com 1.10,2013-09-07 14:53:00,
2013-09-07 09:08:00,59.3,51.0,30.07,SSW,210,0.0,0.0,73,0.00,,,0.00,251,weatherlink.com 1.10,2013-09-07 15:08:00,
2013-09-07 09:23:00,60.7,51.0,30.07,SSE,152,0.0,0.0,70,0.00,,,0.00,294,weatherlink.com 1.10,2013-09-07 15:23:00,
2013-09-07 09:38:00,61.5,51.0,30.07,South,176,0.0,5.0,68,0.00,,,0.00,334,weatherlink.com 1.10,2013-09-07 15:38:00,
2013-09-07 09:53:00,61.9,51.0,30.06,SW,227,2.0,5.0,67,0.00,,,0.00,374,weatherlink.com 1.10,2013-09-07 15:53:00,
2013-09-07 10:08:00,62.9,52.0,30.06,SSW,204,3.0,4.0,67,0.00,,,0.00,411,weatherlink.com 1.10,2013-09-07 16:08:00,
2013-09-07 10:23:00,63.8,51.0,30.06,South,190,4.0,4.0,64,0.00,,,0.00,454,weatherlink.com 1.10,2013-09-07 16:23:00,
2013-09-07 10:39:00,65.2,50.0,30.06,SSW,202,1.0,3.0,59,0.00,,,0.00,489,weatherlink.com 1.10,2013-09-07 16:39:00,
2013-09-07 10:54:00,65.8,51.0,30.05,SW,233,0.0,5.0,59,0.00,,,0.00,517,weatherlink.com 1.10,2013-09-07 16:54:00,
2013-09-07 11:09:00,66.1,51.0,30.05,SW,231,2.0,6.0,58,0.00,,,0.00,555,weatherlink.com 1.10,2013-09-07 17:09:00,
2013-09-07 11:24:00,67.3,51.0,30.04,West,260,2.0,8.0,56,0.00,,,0.00,584,weatherlink.com 1.10,2013-09-07 17:24:00,
2013-09-07 11:39:00,68.0,51.0,30.04,WSW,253,3.0,5.0,55,0.00,,,0.00,613,weatherlink.com 1.10,2013-09-07 17:39:00,
2013-09-07 11:54:00,69.4,50.0,30.03,SSE,157,0.0,3.0,51,0.00,,,0.00,643,weatherlink.com 1.10,2013-09-07 17:54:00,
2013-09-07 12:09:00,71.2,50.0,30.02,WNW,303,1.0,6.0,47,0.00,,,0.00,666,weatherlink.com 1.10,2013-09-07 18:09:00,
2013-09-07 12:24:00,71.3,50.0,30.01,WNW,294,1.0,5.0,48,0.00,,,0.00,686,weatherlink.com 1.10,2013-09-07 18:24:00,
2013-09-07 12:39:00,72.2,51.0,30.01,SW,232,0.0,4.0,47,0.00,,,0.00,703,weatherlink.com 1.10,2013-09-07 18:39:00,
2013-09-07 12:54:00,72.6,51.0,30.00,West,261,3.0,7.0,47,0.00,,,0.00,719,weatherlink.com 1.10,2013-09-07 18:54:00,
2013-09-07 13:09:00,73.5,51.0,29.99,WNW,282,1.0,8.0,46,0.00,,,0.00,728,weatherlink.com 1.10,2013-09-07 19:09:00,
2013-09-07 13:24:00,74.3,52.0,29.98,NW,306,1.0,8.0,45,0.00,,,0.00,737,weatherlink.com 1.10,2013-09-07 19:24:00,
2013-09-07 13:39:00,75.5,52.0,29.98,WNW,287,7.0,7.0,44,0.00,,,0.00,742,weatherlink.com 1.10,2013-09-07 19:39:00,
2013-09-07 13:54:00,75.4,51.0,29.97,NW,324,2.0,11.0,43,0.00,,,0.00,744,weatherlink.com 1.10,2013-09-07 19:54:00,
2013-09-07 14:09:00,76.8,51.0,29.96,WNW,301,2.0,7.0,40,0.00,,,0.00,744,weatherlink.com 1.10,2013-09-07 20:09:00,
2013-09-07 14:24:00,78.1,50.0,29.96,NNW,343,3.0,11.0,38,0.00,,,0.00,740,weatherlink.com 1.10,2013-09-07 20:24:00,
2013-09-07 14:39:00,78.6,51.0,29.95,WNW,285,6.0,12.0,38,0.00,,,0.00,733,weatherlink.com 1.10,2013-09-07 20:39:00,
2013-09-07 14:55:00,80.0,50.0,29.94,NNW,327,6.0,12.0,35,0.00,,,0.00,719,weatherlink.com 1.10,2013-09-07 20:55:00,
2013-09-07 15:10:00,80.6,51.0,29.93,West,269,4.0,14.0,35,0.00,,,0.00,707,weatherlink.com 1.10,2013-09-07 21:10:00,
2013-09-07 15:25:00,80.9,49.0,29.93,North,360,9.0,12.0,33,0.00,,,0.00,687,weatherlink.com 1.10,2013-09-07 21:25:00,
2013-09-07 15:40:00,81.4,49.0,29.92,NW,323,8.0,12.0,32,0.00,,,0.00,671,weatherlink.com 1.10,2013-09-07 21:40:00,
2013-09-07 15:55:00,82.0,51.0,29.92,WNW,299,12.0,13.0,34,0.00,,,0.00,657,weatherlink.com 1.10,2013-09-07 21:55:00,
2013-09-07 16:10:00,82.0,49.0,29.92,WNW,296,8.0,17.0,32,0.00,,,0.00,617,weatherlink.com 1.10,2013-09-07 22:10:00,
2013-09-07 16:25:00,81.7,50.0,29.91,WNW,295,7.0,14.0,33,0.00,,,0.00,580,weatherlink.com 1.10,2013-09-07 22:25:00,
2013-09-07 16:40:00,82.4,49.0,29.90,NW,304,10.0,13.0,31,0.00,,,0.00,557,weatherlink.com 1.10,2013-09-07 22:40:00,
2013-09-07 16:55:00,82.6,49.0,29.89,NW,320,9.0,13.0,31,0.00,,,0.00,519,weatherlink.com 1.10,2013-09-07 22:55:00,
2013-09-07 17:10:00,82.7,49.0,29.89,NNW,330,6.0,14.0,31,0.00,,,0.00,475,weatherlink.com 1.10,2013-09-07 23:10:00,
2013-09-07 17:25:00,82.9,49.0,29.89,NW,316,10.0,14.0,31,0.00,,,0.00,438,weatherlink.com 1.10,2013-09-07 23:25:00,
2013-09-07 17:40:00,82.5,48.0,29.88,NNW,338,5.0,13.0,30,0.00,,,0.00,397,weatherlink.com 1.10,2013-09-07 23:40:00,
2013-09-07 17:55:00,82.3,48.0,29.88,North,350,10.0,18.0,30,0.00,,,0.00,357,weatherlink.com 1.10,2013-09-07 23:55:00,
2013-09-07 18:10:00,82.2,47.0,29.88,NNW,343,12.0,19.0,29,0.00,,,0.00,313,weatherlink.com 1.10,2013-09-08 00:10:00,
2013-09-07 18:25:00,81.7,46.0,29.88,NNW,331,11.0,16.0,29,0.00,,,0.00,269,weatherlink.com 1.10,2013-09-08 00:25:00,
2013-09-07 18:40:00,81.3,46.0,29.88,NNW,340,10.0,15.0,29,0.00,,,0.00,225,weatherlink.com 1.10,2013-09-08 00:40:00,
2013-09-07 18:55:00,81.0,46.0,29.88,North,2,4.0,14.0,29,0.00,,,0.00,176,weatherlink.com 1.10,2013-09-08 00:55:00,
2013-09-07 19:10:00,80.6,46.0,29.88,NW,314,8.0,15.0,30,0.00,,,0.00,123,weatherlink.com 1.10,2013-09-08 01:10:00,
2013-09-07 19:25:00,79.1,46.0,29.88,North,2,6.0,16.0,31,0.00,,,0.00,19,weatherlink.com 1.10,2013-09-08 01:25:00,
2013-09-07 19:40:00,77.4,47.0,29.88,NNW,347,13.0,14.0,34,0.00,,,0.00,14,weatherlink.com 1.10,2013-09-08 01:40:00,
2013-09-07 19:55:00,76.4,46.0,29.89,North,356,10.0,15.0,34,0.00,,,0.00,9,weatherlink.com 1.10,2013-09-08 01:55:00,
2013-09-07 20:10:00,75.6,47.0,29.89,North,7,12.0,17.0,36,0.00,,,0.00,0,weatherlink.com 1.10,2013-09-08 02:10:00,
2013-09-07 20:25:00,74.9,47.0,29.91,North,1,6.0,16.0,37,0.00,,,0.00,0,weatherlink.com 1.10,2013-09-08 02:25:00,
2013-09-07 20:40:00,73.4,48.0,29.91,NNW,335,10.0,12.0,41,0.00,,,0.00,0,weatherlink.com 1.10,2013-09-08 02:40:00,
2013-09-07 20:55:00,72.0,48.0,29.93,NNW,329,7.0,14.0,42,0.00,,,0.00,0,weatherlink.com 1.10,2013-09-08 02:55:00,
2013-09-07 21:10:00,72.4,48.0,29.93,NNW,333,10.0,16.0,42,0.00,,,0.00,0,weatherlink.com 1.10,2013-09-08 03:10:00,
2013-09-07 21:25:00,71.9,47.0,29.94,NNW,347,7.0,14.0,42,0.00,,,0.00,0,weatherlink.com 1.10,2013-09-08 03:25:00,
2013-09-07 21:40:00,71.5,47.0,29.94,NNW,345,12.0,14.0,42,0.00,,,0.00,0,weatherlink.com 1.10,2013-09-08 03:40:00,
2013-09-07 21:55:00,71.6,48.0,29.95,NW,326,9.0,15.0,43,0.00,,,0.00,0,weatherlink.com 1.10,2013-09-08 03:55:00,
2013-09-07 22:10:00,71.2,48.0,29.95,NNW,341,14.0,14.0,44,0.00,,,0.00,0,weatherlink.com 1.10,2013-09-08 04:10:00,
2013-09-07 22:25:00,70.8,47.0,29.95,North,7,5.0,15.0,43,0.00,,,0.00,0,weatherlink.com 1.10,2013-09-08 04:25:00,
2013-09-07 22:40:00,70.1,47.0,29.96,North,8,7.0,12.0,44,0.00,,,0.00,0,weatherlink.com 1.10,2013-09-08 04:40:00,
2013-09-07 22:55:00,69.9,47.0,29.96,North,2,9.0,13.0,44,0.00,,,0.00,0,weatherlink.com 1.10,2013-09-08 04:55:00,
2013-09-07 23:10:00,69.2,46.0,29.97,North,352,5.0,9.0,44,0.00,,,0.00,0,weatherlink.com 1.10,2013-09-08 05:10:00,
2013-09-07 23:25:00,68.4,46.0,29.97,North,349,8.0,8.0,45,0.00,,,0.00,0,weatherlink.com 1.10,2013-09-08 05:25:00,
2013-09-07 23:40:00,67.4,45.0,29.97,NNW,348,7.0,10.0,45,0.00,,,0.00,0,weatherlink.com 1.10,2013-09-08 05:40:00,
2013-09-07 23:55:00,67.7,45.0,29.97,North,355,7.0,11.0,45,0.00,,,0.00,0,weatherlink.com 1.10,2013-09-08 05:55:00,